Grove, United Kingdom
Current Conditions -  °F | °C
As of 3:50 PM on Tuesday 21 Oct 2014 (Local Time) from EGVN Reporting Station
Scattered Clouds Scattered Clouds  
Wind Chill: 54°   Ceiling: Unl
Heat Index: 54°   Visibility: 6mi
Dew Point: 36°   Wind: 23mph
Humidity: 51%   Direction: 280°W
Pressure: 29.83"   Gusts: 36mph
Location:  51.61°N, 1.42°W
Report Text: EGVN 211450Z 28020G31KT 9999 SCT045 12/02 Q1010 BLU TEMPO 5000 SHRA WHT
Loading
Personal Weather Stations






























Interactive Weather Map
Tropical Storm Tracking
New forecast layout! Learn more

10-Day Weather Forecast

Advertisements
Track Severe Weather on mobile